Time;durP1;ratioP1;P1;durP2;ratioP2;P2;SDS_P1;SDS_P2;PMS_P1;PMS_P2;Temp;Humidity;BMP_temperature;BMP_pressure;BME280_temperature;BME280_humidity;BME280_pressure;Samples;Min_cycle;Max_cycle;Signal;HPM_P1;HPM_P2
2021/12/13 00:00:10;;;;;;;10.48;6.00;;;;;;;1.50;100.00;99759.28;5151826;27;20501;-47
2021/12/13 00:02:42;;;;;;;11.43;6.68;;;;;;;1.53;100.00;99764.06;5151887;27;20054;-48
2021/12/13 00:05:14;;;;;;;11.80;7.00;;;;;;;1.60;100.00;99764.56;5151831;27;20052;-47
2021/12/13 00:07:44;;;;;;;10.23;6.80;;;;;;;1.55;100.00;99763.81;5151590;27;20051;-47
2021/12/13 00:10:13;;;;;;;11.75;6.68;;;;;;;1.52;100.00;99764.38;5151836;27;20050;-46
2021/12/13 00:12:45;;;;;;;13.43;7.35;;;;;;;1.55;100.00;99767.31;5151458;27;20066;-47
2021/12/13 00:15:17;;;;;;;12.68;6.93;;;;;;;1.56;100.00;99771.59;5151489;27;20046;-47
2021/12/13 00:17:46;;;;;;;9.40;6.32;;;;;;;1.54;100.00;99771.13;5151725;27;20050;-46
2021/12/13 00:20:19;;;;;;;11.27;6.88;;;;;;;1.52;100.00;99772.50;5151563;27;20060;-48
2021/12/13 00:22:49;;;;;;;13.15;6.63;;;;;;;1.41;100.00;99783.44;5151457;27;20059;-48
2021/12/13 00:25:19;;;;;;;10.07;6.15;;;;;;;1.44;100.00;99789.34;5151558;27;20046;-46
2021/12/13 00:27:48;;;;;;;11.23;6.30;;;;;;;1.41;100.00;99788.81;5151732;27;20465;-47
2021/12/13 00:30:21;;;;;;;9.90;6.22;;;;;;;1.46;100.00;99795.25;5151235;27;20050;-47
2021/12/13 00:32:56;;;;;;;10.57;6.60;;;;;;;1.52;100.00;99794.91;5151117;27;20481;-48
2021/12/13 00:35:33;;;;;;;8.93;6.28;;;;;;;1.50;100.00;99801.69;5151347;27;20107;-46
2021/12/13 00:38:04;;;;;;;9.50;6.55;;;;;;;1.37;100.00;99801.31;5151420;27;20094;-50
2021/12/13 00:40:34;;;;;;;10.85;5.82;;;;;;;1.35;100.00;99803.47;5151439;27;20053;-46
2021/12/13 00:43:03;;;;;;;8.70;5.90;;;;;;;1.36;100.00;99809.69;5151087;27;20057;-48
2021/12/13 00:45:33;;;;;;;8.68;5.45;;;;;;;1.42;100.00;99806.63;5151248;27;20042;-46
2021/12/13 00:48:03;;;;;;;10.32;6.15;;;;;;;1.46;100.00;99816.88;5151113;27;20138;-47
2021/12/13 00:50:36;;;;;;;11.48;6.75;;;;;;;1.40;100.00;99825.06;5151082;27;20050;-46
2021/12/13 00:53:03;;;;;;;11.35;6.80;;;;;;;1.41;100.00;99834.75;5151240;27;20049;-46
2021/12/13 00:55:32;;;;;;;11.80;7.38;;;;;;;1.47;100.00;99832.00;5150431;27;20057;-48
2021/12/13 00:58:08;;;;;;;12.50;6.90;;;;;;;1.46;100.00;99833.09;5151223;27;20043;-46
2021/12/13 01:00:38;;;;;;;14.50;7.05;;;;;;;1.47;100.00;99838.22;5150794;27;20051;-46
2021/12/13 01:03:11;;;;;;;16.58;7.30;;;;;;;1.47;100.00;99840.91;5151220;27;20051;-46
2021/12/13 01:05:58;;;;;;;14.23;8.15;;;;;;;1.46;100.00;99838.50;5150943;27;20133;-46
2021/12/13 01:08:57;;;;;;;15.13;7.90;;;;;;;1.46;100.00;99836.59;5151026;27;20456;-46
2021/12/13 01:11:39;;;;;;;13.90;7.95;;;;;;;1.37;100.00;99841.84;5150553;27;20047;-46
2021/12/13 01:14:19;;;;;;;15.13;8.45;;;;;;;1.23;100.00;99850.88;5150585;27;20145;-46
2021/12/13 01:16:59;;;;;;;17.10;8.60;;;;;;;1.29;100.00;99850.56;5150751;27;20138;-46
2021/12/13 01:19:35;;;;;;;14.23;7.57;;;;;;;1.21;100.00;99847.69;5150773;27;20051;-46
2021/12/13 01:22:29;;;;;;;13.75;8.00;;;;;;;1.20;100.00;99844.19;5150612;27;20184;-47
2021/12/13 01:27:44;;;;;;;14.52;7.93;;;;;;;1.41;100.00;99829.34;5150791;27;20465;-46
2021/12/13 01:30:14;;;;;;;9.85;5.60;;;;;;;1.44;100.00;99829.88;5150708;27;20050;-46
2021/12/13 01:32:43;;;;;;;10.68;6.45;;;;;;;1.33;100.00;99832.69;5150519;27;20094;-46
2021/12/13 01:35:14;;;;;;;12.05;6.75;;;;;;;1.33;100.00;99837.28;5150601;27;20046;-47
2021/12/13 01:37:41;;;;;;;12.20;6.18;;;;;;;1.32;100.00;99836.47;5150589;27;20047;-46
2021/12/13 01:40:13;;;;;;;7.03;4.88;;;;;;;1.26;100.00;99831.41;5150638;27;20103;-46
2021/12/13 01:42:39;;;;;;;7.70;4.85;;;;;;;1.20;100.00;99833.38;5150455;27;20076;-46
2021/12/13 01:45:10;;;;;;;9.98;5.43;;;;;;;1.16;100.00;99829.63;5153814;27;20046;-46
2021/12/13 01:47:39;;;;;;;7.85;5.03;;;;;;;1.16;100.00;99827.72;5153808;27;20051;-47
2021/12/13 01:50:10;;;;;;;11.00;5.80;;;;;;;1.20;100.00;99837.97;5154338;27;20402;-46
2021/12/13 01:52:38;;;;;;;11.00;6.05;;;;;;;1.21;100.00;99834.19;5154041;27;20487;-46
2021/12/13 01:55:15;;;;;;;8.60;5.28;;;;;;;1.23;100.00;99835.47;5153298;27;20137;-46
2021/12/13 01:57:48;;;;;;;7.75;5.03;;;;;;;1.27;100.00;99831.16;5154042;27;20046;-47
2021/12/13 02:00:21;;;;;;;9.23;5.80;;;;;;;1.28;100.00;99832.75;5154102;27;20089;-47
2021/12/13 02:02:50;;;;;;;8.77;5.47;;;;;;;1.06;100.00;99838.63;5154002;27;20051;-49
2021/12/13 02:05:21;;;;;;;7.53;4.82;;;;;;;1.06;100.00;99843.22;5153588;27;20050;-47
2021/12/13 02:07:50;;;;;;;9.35;5.97;;;;;;;1.10;100.00;99841.56;5153685;27;20421;-47
2021/12/13 02:10:23;;;;;;;7.25;4.80;;;;;;;1.08;100.00;99838.34;5153718;27;20485;-47
2021/12/13 02:12:56;;;;;;;7.90;4.32;;;;;;;1.02;100.00;99847.59;5153384;27;20042;-50
2021/12/13 02:18:10;;;;;;;7.10;4.15;;;;;;;1.00;100.00;99847.91;5153654;27;20535;-46
2021/12/13 02:20:41;;;;;;;9.40;4.93;;;;;;;1.01;100.00;99849.50;5153659;27;20042;-47
2021/12/13 02:23:08;;;;;;;8.73;5.18;;;;;;;1.12;100.00;99845.59;5153152;27;20050;-46
2021/12/13 02:25:38;;;;;;;8.02;5.05;;;;;;;1.20;100.00;99840.66;5153509;27;20047;-46
2021/12/13 02:28:08;;;;;;;7.15;4.85;;;;;;;1.20;100.00;99846.06;5153257;27;20047;-47
2021/12/13 02:30:40;;;;;;;7.93;4.65;;;;;;;1.16;100.00;99843.13;5153299;27;20046;-48
2021/12/13 02:33:10;;;;;;;7.18;4.15;;;;;;;1.13;100.00;99846.41;5153231;27;20141;-47
2021/12/13 02:35:41;;;;;;;7.80;4.70;;;;;;;1.10;100.00;99852.38;5153614;27;20429;-47
2021/12/13 02:38:11;;;;;;;6.50;4.28;;;;;;;1.08;100.00;99849.97;5153270;27;20058;-46
2021/12/13 02:40:37;;;;;;;6.18;4.40;;;;;;;1.06;100.00;99846.72;5153093;27;20047;-46
2021/12/13 02:43:06;;;;;;;8.32;4.60;;;;;;;1.09;100.00;99853.47;5153359;27;20061;-46
2021/12/13 02:45:42;;;;;;;5.13;3.95;;;;;;;1.08;100.00;99854.56;5152883;27;20061;-46
2021/12/13 02:48:16;;;;;;;5.05;3.55;;;;;;;1.08;100.00;99849.16;5152993;27;20090;-46
2021/12/13 02:50:47;;;;;;;4.25;3.28;;;;;;;1.06;100.00;99854.03;5152963;27;20050;-46
2021/12/13 02:53:20;;;;;;;6.88;3.95;;;;;;;1.02;100.00;99861.09;5152960;27;20424;-47
2021/12/13 02:55:47;;;;;;;6.10;3.63;;;;;;;1.04;100.00;99857.03;5152125;27;20057;-46
2021/12/13 02:58:17;;;;;;;6.47;4.13;;;;;;;1.07;100.00;99847.56;5152776;27;20434;-47
2021/12/13 03:00:48;;;;;;;5.25;3.47;;;;;;;1.08;100.00;99849.16;5152904;27;20079;-46
2021/12/13 03:03:19;;;;;;;8.18;4.25;;;;;;;1.07;100.00;99851.06;5152956;27;20051;-47
2021/12/13 03:05:49;;;;;;;7.55;3.70;;;;;;;1.07;100.00;99851.06;5152801;27;20086;-46
2021/12/13 03:08:19;;;;;;;4.65;3.53;;;;;;;0.98;100.00;99843.88;5152557;27;20051;-46
2021/12/13 03:10:52;;;;;;;4.85;3.45;;;;;;;1.01;100.00;99854.09;5152536;27;20051;-46
2021/12/13 03:13:20;;;;;;;7.32;4.20;;;;;;;1.11;100.00;99846.69;5152437;27;20054;-46
2021/12/13 03:15:50;;;;;;;7.55;4.70;;;;;;;1.11;100.00;99849.41;5152625;27;20099;-47
2021/12/13 03:18:20;;;;;;;7.68;3.80;;;;;;;1.05;100.00;99847.03;5152569;27;20134;-47
2021/12/13 03:21:03;;;;;;;5.45;3.92;;;;;;;1.06;100.00;99844.03;5152428;27;20047;-47
2021/12/13 03:23:46;;;;;;;7.03;4.25;;;;;;;1.05;100.00;99847.03;5152545;27;20102;-46
2021/12/13 03:26:45;;;;;;;5.38;3.83;;;;;;;1.07;100.00;99845.66;5152246;27;20412;-46
2021/12/13 03:29:18;;;;;;;5.65;4.10;;;;;;;1.04;100.00;99842.72;5130726;27;20053;-46
2021/12/13 03:31:50;;;;;;;6.88;4.30;;;;;;;1.06;100.00;99844.03;5152315;27;20050;-47
2021/12/13 03:34:19;;;;;;;5.43;3.92;;;;;;;1.05;100.00;99844.31;5152268;27;20050;-47
2021/12/13 03:36:59;;;;;;;5.90;3.90;;;;;;;1.03;100.00;99846.50;5152253;27;20047;-46
2021/12/13 03:39:29;;;;;;;5.57;4.03;;;;;;;1.06;100.00;99852.13;5152117;27;20053;-47
2021/12/13 03:41:58;;;;;;;5.85;4.18;;;;;;;1.11;100.00;99844.00;5151932;27;20467;-46
2021/12/13 03:44:30;;;;;;;5.50;3.47;;;;;;;1.16;100.00;99846.63;5152223;27;20046;-48
2021/12/13 03:47:03;;;;;;;5.10;3.25;;;;;;;1.09;100.00;99853.47;5152064;27;20050;-50
2021/12/13 03:49:31;;;;;;;4.93;4.07;;;;;;;1.08;100.00;99871.56;5152101;27;20046;-48
2021/12/13 03:51:58;;;;;;;4.28;3.35;;;;;;;1.10;100.00;99877.50;5151885;27;20442;-48
2021/12/13 03:54:27;;;;;;;5.32;3.75;;;;;;;1.02;100.00;99885.41;5151535;27;20057;-48
2021/12/13 03:56:55;;;;;;;7.38;4.15;;;;;;;1.06;100.00;99891.84;5151969;27;20058;-47
2021/12/13 03:59:27;;;;;;;5.70;4.00;;;;;;;1.08;100.00;99897.75;5151937;27;20125;-46
2021/12/13 04:01:57;;;;;;;6.20;3.65;;;;;;;1.02;100.00;99909.69;5151591;27;20153;-48
2021/12/13 04:04:28;;;;;;;5.53;4.00;;;;;;;0.98;100.00;99919.47;5151834;27;20046;-46
2021/12/13 04:07:06;;;;;;;5.53;3.90;;;;;;;0.99;100.00;99932.66;5150564;27;20047;-46
2021/12/13 04:09:33;;;;;;;4.72;3.38;;;;;;;1.02;100.00;99942.09;5151552;27;20064;-48
2021/12/13 04:12:05;;;;;;;6.18;4.10;;;;;;;1.17;100.00;99921.19;5151886;27;20046;-46
2021/12/13 04:14:37;;;;;;;7.20;4.03;;;;;;;1.15;100.00;99920.66;5151631;27;20529;-47
2021/12/13 04:17:19;;;;;;;7.90;4.70;;;;;;;1.15;100.00;99923.34;5151796;27;20042;-46
2021/12/13 04:19:50;;;;;;;6.75;3.92;;;;;;;1.12;100.00;99923.91;5151589;27;20046;-46
2021/12/13 04:22:20;;;;;;;8.80;4.95;;;;;;;1.08;100.00;99928.28;5151628;27;20052;-47
2021/12/13 04:24:52;;;;;;;6.85;4.30;;;;;;;1.24;100.00;99928.94;5151395;27;20058;-46
2021/12/13 04:27:22;;;;;;;6.18;4.03;;;;;;;1.14;100.00;99929.84;5151430;27;20504;-47
2021/12/13 04:29:52;;;;;;;6.13;4.43;;;;;;;0.98;100.00;99944.56;5151367;27;20053;-47
2021/12/13 04:32:22;;;;;;;5.40;4.18;;;;;;;0.99;100.00;99954.25;5151260;27;20133;-47
2021/12/13 04:34:51;;;;;;;6.15;4.18;;;;;;;1.01;100.00;99949.41;5151414;27;20051;-48
2021/12/13 04:37:21;;;;;;;6.40;3.97;;;;;;;1.08;100.00;99946.38;5151262;27;20054;-46
2021/12/13 04:39:53;;;;;;;5.57;3.72;;;;;;;1.08;100.00;99949.88;5151038;27;20172;-47
2021/12/13 04:42:21;;;;;;;5.70;3.83;;;;;;;1.09;100.00;99956.88;5151391;27;20059;-47
2021/12/13 04:44:50;;;;;;;4.65;3.40;;;;;;;1.09;100.00;99964.19;5151479;27;20106;-49
2021/12/13 04:47:20;;;;;;;5.05;3.10;;;;;;;1.15;100.00;99971.16;5151076;27;20406;-51
2021/12/13 04:49:51;;;;;;;4.10;3.40;;;;;;;1.15;100.00;99984.66;5151261;27;20497;-47
2021/12/13 04:52:21;;;;;;;5.25;3.22;;;;;;;1.23;100.00;99985.94;5151081;27;20047;-48
2021/12/13 04:54:51;;;;;;;5.13;3.67;;;;;;;1.18;100.00;100003.00;5150363;27;20066;-51
2021/12/13 04:57:19;;;;;;;5.03;3.42;;;;;;;1.14;100.00;100008.16;5151001;27;20051;-49
2021/12/13 04:59:49;;;;;;;9.18;2.95;;;;;;;1.20;100.00;100008.13;5150951;27;20051;-48
2021/12/13 05:02:15;;;;;;;5.57;3.35;;;;;;;1.42;100.00;100011.97;5151080;27;20114;-46
2021/12/13 05:04:42;;;;;;;6.60;4.20;;;;;;;1.60;100.00;99999.69;5151025;27;20436;-47
2021/12/13 05:07:08;;;;;;;5.05;3.20;;;;;;;1.54;100.00;100027.03;5150750;27;20098;-45
2021/12/13 05:09:35;;;;;;;4.40;3.47;;;;;;;1.52;100.00;100048.13;5150696;27;20051;-49
2021/12/13 05:12:10;;;;;;;4.75;3.50;;;;;;;1.56;100.00;100076.19;5151127;27;20046;-51
2021/12/13 05:14:39;;;;;;;4.70;3.67;;;;;;;1.64;100.00;100060.19;5150670;27;20051;-51
2021/12/13 05:17:10;;;;;;;5.90;3.85;;;;;;;1.70;100.00;100066.38;5151141;27;20058;-51
2021/12/13 05:19:40;;;;;;;5.43;4.05;;;;;;;1.70;100.00;100070.94;5153762;27;20042;-50
2021/12/13 05:22:09;;;;;;;5.20;3.85;;;;;;;1.68;100.00;100073.94;5153175;27;20171;-52
2021/12/13 05:24:43;;;;;;;5.32;3.92;;;;;;;1.72;100.00;100074.97;5153375;27;20189;-54
2021/12/13 05:27:14;;;;;;;5.90;4.10;;;;;;;1.68;100.00;100081.25;5153457;27;20054;-53
2021/12/13 05:29:44;;;;;;;5.07;3.80;;;;;;;1.76;100.00;100076.00;5154013;27;20527;-51
2021/12/13 05:32:15;;;;;;;2.45;2.30;;;;;;;1.63;100.00;100101.81;5153285;27;20050;-52
2021/12/13 05:34:48;;;;;;;3.65;3.22;;;;;;;1.53;100.00;100122.69;5147845;27;20057;-49
2021/12/13 05:37:17;;;;;;;3.97;2.88;;;;;;;1.46;100.00;100133.00;5154137;27;20462;-49
2021/12/13 05:39:58;;;;;;;3.20;2.58;;;;;;;1.53;100.00;100137.00;5154392;27;20475;-50
2021/12/13 05:42:35;;;;;;;3.83;3.30;;;;;;;1.54;100.00;100140.53;5153886;27;20065;-49
2021/12/13 05:45:03;;;;;;;3.17;2.88;;;;;;;1.70;100.00;100136.66;5154069;27;20051;-50
2021/12/13 05:47:29;;;;;;;5.35;3.30;;;;;;;1.74;100.00;100142.28;5153840;27;20512;-48
2021/12/13 05:49:55;;;;;;;4.32;2.83;;;;;;;1.83;100.00;100145.97;5153862;27;20051;-50
2021/12/13 05:52:26;;;;;;;5.13;3.65;;;;;;;1.80;100.00;100155.50;5153636;27;20050;-53
2021/12/13 05:54:57;;;;;;;4.22;3.00;;;;;;;1.78;100.00;100163.06;5153105;27;20073;-49
2021/12/13 05:57:26;;;;;;;6.07;4.18;;;;;;;1.67;100.00;100169.66;5153133;27;20050;-51
2021/12/13 05:59:59;;;;;;;6.07;3.67;;;;;;;1.82;100.00;100157.91;5153160;27;20098;-50
2021/12/13 06:03:02;;;;;;;3.92;2.92;;;;;;;2.11;100.00;100149.81;5153231;27;20133;-53
2021/12/13 06:05:33;;;;;;;5.55;3.47;;;;;;;2.21;100.00;100157.84;5152785;27;20149;-49
2021/12/13 06:08:03;;;;;;;4.13;3.03;;;;;;;2.05;100.00;100191.53;5152893;27;20147;-48
2021/12/13 06:10:39;;;;;;;4.72;3.50;;;;;;;1.92;100.00;100213.81;5153543;27;20068;-48
2021/12/13 06:13:09;;;;;;;5.75;3.50;;;;;;;1.71;100.00;100216.66;5152614;27;20058;-51
2021/12/13 06:15:39;;;;;;;8.55;3.88;;;;;;;1.76;100.00;100216.59;5152921;27;20490;-54
2021/12/13 06:18:17;;;;;;;5.30;4.25;;;;;;;1.59;100.00;100225.09;5153298;27;20051;-51
2021/12/13 06:20:51;;;;;;;4.57;3.67;;;;;;;1.68;100.00;100211.78;5153169;27;20054;-51
2021/12/13 06:23:22;;;;;;;5.80;4.32;;;;;;;1.75;100.00;100204.19;5152853;27;20513;-50
2021/12/13 06:25:55;;;;;;;4.97;3.40;;;;;;;1.68;100.00;100203.69;5152469;27;20057;-50
2021/12/13 06:28:24;;;;;;;6.55;4.45;;;;;;;1.49;100.00;100202.72;5152480;27;20072;-53
2021/12/13 06:30:55;;;;;;;6.78;5.20;;;;;;;1.53;100.00;100195.66;5152232;27;20398;-52
2021/12/13 06:33:22;;;;;;;7.82;4.35;;;;;;;1.41;100.00;100182.50;5152371;27;20501;-51
2021/12/13 06:35:50;;;;;;;4.95;4.22;;;;;;;1.29;100.00;100187.41;5147246;27;20051;-51
2021/12/13 06:38:47;;;;;;;6.25;4.50;;;;;;;1.29;100.00;100180.13;5131617;28;20090;-51
2021/12/13 06:41:20;;;;;;;7.97;4.88;;;;;;;1.15;100.00;100162.91;5111368;28;20082;-53
2021/12/13 06:43:50;;;;;;;5.25;4.45;;;;;;;1.11;100.00;100164.56;5123967;28;20051;-48
2021/12/13 06:46:46;;;;;;;6.32;4.90;;;;;;;1.24;100.00;100149.66;5131453;28;20135;-50
2021/12/13 06:49:20;;;;;;;6.28;5.13;;;;;;;1.06;100.00;100151.88;5129162;28;20050;-51
2021/12/13 06:51:51;;;;;;;4.65;3.90;;;;;;;1.10;100.00;100141.31;5131889;28;20084;-49
2021/12/13 06:54:21;;;;;;;7.60;5.68;;;;;;;0.87;100.00;100140.09;5128037;28;20378;-50
2021/12/13 06:56:54;;;;;;;6.53;4.90;;;;;;;0.92;100.00;100121.16;5122663;28;20103;-51
2021/12/13 06:59:22;;;;;;;6.72;5.18;;;;;;;1.02;100.00;100096.00;5152122;27;20421;-50
2021/12/13 07:02:02;;;;;;;8.15;5.22;;;;;;;1.05;100.00;100096.25;5152181;27;20050;-52
2021/12/13 07:04:39;;;;;;;6.97;4.45;;;;;;;1.13;100.00;100092.16;5151535;27;20087;-53
2021/12/13 07:07:12;;;;;;;6.53;4.90;;;;;;;1.26;100.00;100077.22;5152236;27;20445;-52
2021/12/13 07:09:39;;;;;;;8.25;5.40;;;;;;;1.22;100.00;100095.88;5152431;27;20053;-56
2021/12/13 07:12:13;;;;;;;7.40;4.63;;;;;;;1.25;100.00;100095.31;5152301;27;20050;-50
2021/12/13 07:14:42;;;;;;;7.22;5.20;;;;;;;1.25;100.00;100108.84;5151353;27;20050;-54
2021/12/13 07:17:14;;;;;;;7.53;5.28;;;;;;;1.36;100.00;100107.66;5152071;27;20501;-50
2021/12/13 07:19:44;;;;;;;7.95;4.90;;;;;;;1.35;100.00;100124.19;5151979;27;20133;-52
2021/12/13 07:22:15;;;;;;;6.45;4.82;;;;;;;1.30;100.00;100125.03;5152204;27;20076;-53
2021/12/13 07:24:46;;;;;;;6.70;4.57;;;;;;;1.31;100.00;100153.66;5150560;27;20055;-50
2021/12/13 07:27:15;;;;;;;7.82;5.05;;;;;;;1.32;100.00;100163.34;5151254;27;20049;-50
2021/12/13 07:30:00;;;;;;;5.82;4.28;;;;;;;1.34;100.00;100188.22;5146053;27;20051;-52
2021/12/13 07:32:29;;;;;;;6.03;3.97;;;;;;;1.36;100.00;100190.63;5131443;28;20047;-53
2021/12/13 07:35:02;;;;;;;5.22;3.75;;;;;;;1.25;100.00;100216.09;5131045;27;20103;-52
2021/12/13 07:37:45;;;;;;;6.30;4.00;;;;;;;1.32;100.00;100228.19;5130850;27;20479;-51
2021/12/13 07:40:39;;;;;;;6.35;4.72;;;;;;;1.42;100.00;100224.63;5130815;27;20409;-50
2021/12/13 07:43:12;;;;;;;5.10;3.83;;;;;;;1.45;100.00;100255.72;5131014;28;20055;-50
2021/12/13 07:45:45;;;;;;;4.57;3.30;;;;;;;1.31;100.00;100285.22;5130907;27;20051;-52
2021/12/13 07:48:14;;;;;;;4.60;3.00;;;;;;;1.40;100.00;100286.28;5131242;27;20054;-50
2021/12/13 07:50:43;;;;;;;4.97;3.17;;;;;;;1.30;100.00;100297.09;5130751;27;20043;-49
2021/12/13 07:53:13;;;;;;;6.55;3.35;;;;;;;1.25;100.00;100292.53;5131278;27;20107;-51
2021/12/13 07:55:46;;;;;;;4.55;3.47;;;;;;;1.20;100.00;100286.31;5130276;27;20525;-52
2021/12/13 07:58:15;;;;;;;4.43;3.30;;;;;;;1.28;100.00;100273.06;5131265;27;20545;-55
2021/12/13 08:00:45;;;;;;;4.80;3.25;;;;;;;1.33;100.00;100281.16;5130581;27;20043;-51
2021/12/13 08:03:24;;;;;;;5.15;3.40;;;;;;;1.26;100.00;100283.31;5131058;27;20059;-51
2021/12/13 08:05:53;;;;;;;4.40;3.30;;;;;;;1.33;100.00;100291.97;5130936;27;20085;-51
2021/12/13 08:08:23;;;;;;;4.45;3.20;;;;;;;1.26;100.00;100309.53;5130607;27;20511;-49
2021/12/13 08:10:51;;;;;;;4.22;3.53;;;;;;;1.33;100.00;100315.47;5130765;27;20051;-53
2021/12/13 08:13:21;;;;;;;5.60;3.75;;;;;;;1.42;100.00;100306.50;5134321;27;20046;-54
2021/12/13 08:15:53;;;;;;;4.68;3.30;;;;;;;1.41;100.00;100304.91;5141918;27;20047;-51
2021/12/13 08:18:27;;;;;;;5.47;3.38;;;;;;;1.58;100.00;100311.88;5135817;27;20061;-49
2021/12/13 08:20:54;;;;;;;;;;;;;;;1.53;100.00;100312.69;5151417;27;20489;-51
2021/12/13 08:23:24;;;;;;;4.80;3.33;;;;;;;1.57;100.00;100316.47;5150614;27;19967;-51
2021/12/13 08:25:52;;;;;;;4.35;3.47;;;;;;;1.47;100.00;100313.81;5139718;27;20043;-50
2021/12/13 08:28:30;;;;;;;5.20;3.63;;;;;;;1.40;100.00;100300.59;5138535;27;20504;-54
2021/12/13 08:30:59;;;;;;;4.10;3.33;;;;;;;1.46;100.00;100305.97;5150743;27;20631;-51
2021/12/13 08:33:32;;;;;;;5.30;3.42;;;;;;;1.49;100.00;100302.72;5150752;27;20047;-49
2021/12/13 08:36:03;;;;;;;4.32;3.50;;;;;;;1.51;100.00;100301.34;5150564;27;20049;-50
2021/12/13 08:38:35;;;;;;;6.85;4.43;;;;;;;1.37;100.00;100311.16;5150675;27;20055;-52
2021/12/13 08:41:05;;;;;;;5.22;3.58;;;;;;;1.39;100.00;100295.44;5151252;27;20465;-54
2021/12/13 08:43:38;;;;;;;6.05;3.97;;;;;;;1.40;100.00;100310.59;5148816;27;20072;-49
2021/12/13 08:46:06;;;;;;;4.60;3.67;;;;;;;1.45;100.00;100307.06;5150847;27;20057;-51
2021/12/13 08:48:44;;;;;;;6.18;3.97;;;;;;;1.39;100.00;100306.25;5150982;27;20054;-49
2021/12/13 08:51:20;;;;;;;6.00;3.70;;;;;;;1.38;100.00;100304.66;5150730;27;20054;-49
2021/12/13 08:53:58;;;;;;;6.85;4.28;;;;;;;1.36;100.00;100304.91;5154119;27;20051;-51
2021/12/13 08:56:26;;;;;;;5.72;3.83;;;;;;;1.27;100.00;100309.28;5151728;27;20508;-48
2021/12/13 08:58:58;;;;;;;6.45;3.78;;;;;;;1.05;100.00;100309.59;5144228;27;20078;-50
2021/12/13 09:01:37;;;;;;;15.02;4.43;;;;;;;1.07;100.00;100293.94;5140250;27;20082;-49
2021/12/13 09:04:04;;;;;;;7.45;4.35;;;;;;;1.27;100.00;100271.47;5149242;27;20060;-51
2021/12/13 09:06:33;;;;;;;5.65;4.05;;;;;;;1.23;100.00;100275.78;5133649;28;20083;-48
2021/12/13 09:09:09;;;;;;;7.57;4.45;;;;;;;1.32;100.00;100274.13;5135007;27;20055;-53
2021/12/13 09:11:39;;;;;;;7.82;4.85;;;;;;;1.39;100.00;100255.72;5153595;27;20115;-49
2021/12/13 09:14:15;;;;;;;8.13;4.78;;;;;;;1.45;100.00;100263.81;5154342;27;20054;-49
2021/12/13 09:16:55;;;;;;;7.18;5.07;;;;;;;1.56;100.00;100249.97;5154122;27;20082;-48
2021/12/13 09:19:25;;;;;;;7.18;5.15;;;;;;;1.57;100.00;100265.13;5153665;27;20046;-51
2021/12/13 09:21:57;;;;;;;6.50;4.68;;;;;;;1.54;100.00;100290.00;5153739;27;20133;-52
2021/12/13 09:24:29;;;;;;;7.95;4.65;;;;;;;1.58;100.00;100295.66;5147602;27;20047;-51
2021/12/13 09:27:22;;;;;;;6.35;4.35;;;;;;;1.73;100.00;100292.84;5147927;27;20047;-48
2021/12/13 09:30:00;;;;;;;11.57;4.97;;;;;;;1.83;100.00;100302.81;5133088;28;20421;-50
2021/12/13 09:32:34;;;;;;;6.05;4.30;;;;;;;1.87;100.00;100312.81;5141844;27;20046;-48
2021/12/13 09:35:34;;;;;;;5.75;3.75;;;;;;;1.76;100.00;100322.03;5153666;27;20058;-49
2021/12/13 09:38:05;;;;;;;6.05;4.18;;;;;;;1.62;100.00;100338.06;5049666;28;20060;-51
2021/12/13 09:40:36;;;;;;;8.57;5.50;;;;;;;1.63;100.00;100341.56;5135016;27;20055;-48
2021/12/13 09:43:05;;;;;;;6.10;3.90;;;;;;;1.47;100.00;100354.34;5153797;27;20046;-50
2021/12/13 09:45:38;;;;;;;7.03;4.43;;;;;;;1.39;100.00;100350.28;5137187;27;20051;-54
2021/12/13 09:48:22;;;;;;;6.85;4.38;;;;;;;1.33;100.00;100343.31;5132606;27;20053;-50
2021/12/13 09:50:53;;;;;;;5.53;4.13;;;;;;;1.47;100.00;100327.31;5131599;27;20134;-50
2021/12/13 09:53:24;;;;;;;5.72;3.90;;;;;;;1.52;100.00;100329.19;5132599;27;20492;-50
2021/12/13 09:55:51;;;;;;;7.65;4.43;;;;;;;1.43;100.00;100320.81;5132251;27;20497;-49
2021/12/13 09:58:20;;;;;;;8.02;4.70;;;;;;;1.25;100.00;100324.94;5133059;27;20088;-51
2021/12/13 10:00:51;;;;;;;8.57;4.95;;;;;;;1.27;100.00;100308.47;5132725;27;20089;-53
2021/12/13 10:03:22;;;;;;;7.45;4.68;;;;;;;1.39;100.00;100293.53;5132089;27;20047;-53
2021/12/13 10:05:52;;;;;;;7.53;4.70;;;;;;;1.50;100.00;100291.63;5132350;27;20057;-50
2021/12/13 10:08:22;;;;;;;10.38;5.20;;;;;;;1.59;100.00;100281.84;5132440;27;20043;-50
2021/12/13 10:10:52;;;;;;;7.07;5.30;;;;;;;1.74;100.00;100285.56;5132389;27;20047;-52
2021/12/13 10:13:24;;;;;;;7.72;4.80;;;;;;;2.01;100.00;100263.50;5132488;27;20099;-52
2021/12/13 10:15:53;;;;;;;6.88;4.43;;;;;;;1.93;100.00;100277.59;5132177;27;20047;-54
2021/12/13 10:18:24;;;;;;;8.00;5.38;;;;;;;1.91;100.00;100282.50;5132770;27;20506;-51
2021/12/13 10:20:54;;;;;;;8.27;5.03;;;;;;;1.91;100.00;100288.72;5132457;27;20485;-51
2021/12/13 10:23:27;;;;;;;10.20;5.18;;;;;;;1.76;100.00;100300.41;5132448;27;20063;-53
2021/12/13 10:25:59;;;;;;;7.07;5.30;;;;;;;1.52;100.00;100307.56;5131912;27;20544;-53
2021/12/13 10:28:28;;;;;;;8.57;5.70;;;;;;;1.50;100.00;100315.13;5144061;27;20133;-54
2021/12/13 10:30:59;;;;;;;9.93;5.50;;;;;;;1.41;100.00;100314.91;5152658;27;20057;-54
2021/12/13 10:33:28;;;;;;;7.53;5.55;;;;;;;1.49;100.00;100298.09;5152685;27;20137;-56
2021/12/13 10:35:55;;;;;;;7.30;5.03;;;;;;;1.52;100.00;100291.34;5152697;27;20056;-56
2021/12/13 10:38:26;;;;;;;8.18;5.43;;;;;;;1.53;100.00;100292.97;5152373;27;20463;-56
2021/12/13 10:40:56;;;;;;;9.57;5.72;;;;;;;1.53;100.00;100269.44;5152409;27;20134;-56
2021/12/13 10:43:28;;;;;;;7.53;5.13;;;;;;;1.51;100.00;100260.81;5152510;27;20490;-52
2021/12/13 10:46:00;;;;;;;11.32;5.50;;;;;;;1.57;100.00;100269.72;5152578;27;20051;-50
2021/12/13 10:48:33;;;;;;;7.85;4.95;;;;;;;1.68;100.00;100268.56;5152277;27;20548;-49
2021/12/13 10:51:06;;;;;;;10.35;6.05;;;;;;;1.88;100.00;100254.91;5152431;27;20047;-53
2021/12/13 10:53:34;;;;;;;6.90;4.78;;;;;;;1.73;100.00;100265.81;5152313;27;20103;-50
2021/12/13 10:56:05;;;;;;;8.07;5.22;;;;;;;1.64;100.00;100264.81;5151962;27;20093;-53
2021/12/13 10:58:35;;;;;;;8.43;5.05;;;;;;;1.80;100.00;100266.34;5151957;27;20050;-51
2021/12/13 11:01:05;;;;;;;8.82;4.47;;;;;;;1.93;100.00;100272.19;5145794;27;20049;-54
2021/12/13 11:03:34;;;;;;;7.00;4.30;;;;;;;1.73;100.00;100273.94;5152039;27;20095;-52
2021/12/13 11:06:01;;;;;;;9.10;4.93;;;;;;;1.82;100.00;100284.97;5143301;27;20051;-49
2021/12/13 11:08:30;;;;;;;5.57;4.25;;;;;;;1.77;100.00;100298.53;5131390;28;20054;-47
2021/12/13 11:11:02;;;;;;;7.90;4.93;;;;;;;1.69;100.00;100299.91;5130958;28;20142;-46
2021/12/13 11:13:31;;;;;;;7.15;4.68;;;;;;;1.69;100.00;100297.22;5131233;28;20051;-47
2021/12/13 11:16:02;;;;;;;7.72;5.20;;;;;;;1.74;100.00;100278.28;5151323;27;20462;-50
2021/12/13 11:18:28;;;;;;;7.18;4.88;;;;;;;1.85;100.00;100285.22;5152208;27;20069;-52
2021/12/13 11:21:01;;;;;;;7.03;5.20;;;;;;;1.78;100.00;100292.03;5151135;27;20061;-52
2021/12/13 11:23:28;;;;;;;10.57;5.78;;;;;;;1.51;100.00;100308.66;5152000;27;20056;-48
2021/12/13 11:25:57;;;;;;;8.75;5.13;;;;;;;1.42;100.00;100309.22;5152014;27;20050;-50
2021/12/13 11:28:25;;;;;;;11.27;5.70;;;;;;;1.41;100.00;100314.91;5146013;27;20485;-49
2021/12/13 11:30:53;;;;;;;10.20;6.05;;;;;;;1.61;100.00;100300.50;5130867;28;20099;-49
2021/12/13 11:33:59;;;;;;;8.43;4.93;;;;;;;1.62;100.00;100302.13;5151476;27;20071;-50
2021/12/13 11:37:00;;;;;;;7.85;4.65;;;;;;;1.65;100.00;100306.97;5151575;27;20095;-51
2021/12/13 11:40:07;;;;;;;9.88;5.05;;;;;;;1.82;100.00;100298.50;5151294;27;20050;-46
2021/12/13 11:43:03;;;;;;;8.35;4.45;;;;;;;1.99;100.00;100308.94;5144130;27;20453;-48
2021/12/13 11:45:57;;;;;;;7.28;3.88;;;;;;;1.91;100.00;100326.56;5151515;27;20114;-46
2021/12/13 11:49:05;;;;;;;6.40;3.38;;;;;;;1.92;100.00;100355.22;5151134;27;20078;-47
2021/12/13 11:52:12;;;;;;;6.20;3.22;;;;;;;1.71;100.00;100359.13;5060749;27;20054;-47
2021/12/13 11:55:12;;;;;;;5.82;3.85;;;;;;;1.59;100.00;100371.03;5150425;27;20051;-48
2021/12/13 11:58:02;;;;;;;7.40;4.38;;;;;;;1.45;100.00;100361.09;5150977;27;20570;-52